createdAt,value
2017-03-23T00:00:03.870Z,98874
2017-03-23T00:00:19.683Z,98885
2017-03-23T00:00:35.494Z,98888
2017-03-23T00:00:51.302Z,98877
2017-03-23T00:01:07.115Z,98883
2017-03-23T00:01:22.929Z,98877
2017-03-23T00:01:38.739Z,98880
2017-03-23T00:01:54.549Z,98871
2017-03-23T00:02:10.373Z,98871
2017-03-23T00:02:26.188Z,98874
2017-03-23T00:02:42.001Z,98888
2017-03-23T00:02:57.811Z,98874
2017-03-23T00:03:13.872Z,98868
2017-03-23T00:03:29.686Z,98885
2017-03-23T00:03:45.596Z,98871
2017-03-23T00:04:01.412Z,98880
2017-03-23T00:04:17.454Z,98880
2017-03-23T00:04:33.264Z,98882
2017-03-23T00:04:49.075Z,98882
2017-03-23T00:05:05.119Z,98885
2017-03-23T00:05:20.939Z,98885
2017-03-23T00:05:36.751Z,98885
2017-03-23T00:05:52.792Z,98891
2017-03-23T00:06:08.607Z,98882
2017-03-23T00:06:24.421Z,98880
2017-03-23T00:06:40.233Z,98885
2017-03-23T00:06:56.044Z,98877
2017-03-23T00:07:11.856Z,98880
2017-03-23T00:07:27.673Z,98874
2017-03-23T00:07:43.482Z,98882
2017-03-23T00:07:59.294Z,98882
2017-03-23T00:08:15.337Z,98888
2017-03-23T00:08:31.148Z,98877
2017-03-23T00:08:46.959Z,98874
2017-03-23T00:09:02.768Z,98880
2017-03-23T00:09:18.583Z,98894
2017-03-23T00:09:34.393Z,98880
2017-03-23T00:09:50.206Z,98882
2017-03-23T00:10:06.015Z,98880
2017-03-23T00:10:21.828Z,98877
2017-03-23T00:10:37.643Z,98880
2017-03-23T00:10:53.461Z,98877
2017-03-23T00:11:09.273Z,98885
2017-03-23T00:11:25.080Z,98877
2017-03-23T00:11:40.895Z,98874
2017-03-23T00:11:56.705Z,98880
2017-03-23T00:12:12.517Z,98882
2017-03-23T00:12:28.329Z,98877
2017-03-23T00:12:44.141Z,98880
2017-03-23T00:12:59.953Z,98882
2017-03-23T00:13:16.154Z,98885
2017-03-23T00:13:31.971Z,98885
2017-03-23T00:13:47.775Z,98882
2017-03-23T00:14:03.587Z,98874
2017-03-23T00:14:19.399Z,98877
2017-03-23T00:14:35.210Z,98877
2017-03-23T00:14:51.023Z,98888
2017-03-23T00:15:06.834Z,98874
2017-03-23T00:15:22.645Z,98868
2017-03-23T00:15:38.458Z,98874
2017-03-23T00:15:54.272Z,98874
2017-03-23T00:16:10.087Z,98880
2017-03-23T00:16:25.895Z,98880
2017-03-23T00:16:41.711Z,98871
2017-03-23T00:16:57.524Z,98882
2017-03-23T00:17:13.333Z,98868
2017-03-23T00:17:29.231Z,98868
2017-03-23T00:17:45.144Z,98874
2017-03-23T00:18:01.083Z,98877
2017-03-23T00:18:16.900Z,98882
2017-03-23T00:18:32.717Z,98874
2017-03-23T00:18:48.526Z,98880
2017-03-23T00:19:04.569Z,98868
2017-03-23T00:19:20.610Z,98871
2017-03-23T00:19:36.419Z,98877
2017-03-23T00:19:52.229Z,98874
2017-03-23T00:20:08.275Z,98868
2017-03-23T00:20:24.085Z,98868
2017-03-23T00:20:39.899Z,98874
2017-03-23T00:20:55.712Z,98871
2017-03-23T00:21:11.531Z,98877
2017-03-23T00:21:27.343Z,98862
2017-03-23T00:21:43.155Z,98874
2017-03-23T00:21:58.966Z,98877
2017-03-23T00:22:14.781Z,98865
2017-03-23T00:22:30.589Z,98865
2017-03-23T00:22:46.401Z,98862
2017-03-23T00:23:02.213Z,98868
2017-03-23T00:23:18.026Z,98865
2017-03-23T00:23:33.837Z,98880
2017-03-23T00:23:49.648Z,98865
2017-03-23T00:24:05.458Z,98865
2017-03-23T00:24:21.272Z,98880
2017-03-23T00:24:37.312Z,98871
2017-03-23T00:24:53.123Z,98871
2017-03-23T00:25:08.936Z,98871
2017-03-23T00:25:24.750Z,98871
2017-03-23T00:25:40.792Z,98874
2017-03-23T00:25:56.611Z,98871
2017-03-23T00:26:12.428Z,98877
2017-03-23T00:26:28.238Z,98868
2017-03-23T00:26:44.510Z,98874
2017-03-23T00:27:00.326Z,98871
2017-03-23T00:27:16.138Z,98877
2017-03-23T00:27:31.949Z,98868
2017-03-23T00:27:47.763Z,98868
2017-03-23T00:28:03.577Z,98857
2017-03-23T00:28:19.692Z,98871
2017-03-23T00:28:35.516Z,98871
2017-03-23T00:28:51.330Z,98865
2017-03-23T00:29:07.145Z,98865
2017-03-23T00:29:22.959Z,98871
2017-03-23T00:29:38.775Z,98862
2017-03-23T00:29:54.585Z,98865
2017-03-23T00:30:10.399Z,98862
2017-03-23T00:30:26.212Z,98860
2017-03-23T00:30:42.031Z,98857
2017-03-23T00:30:57.844Z,98868
2017-03-23T00:31:13.523Z,98862
2017-03-23T00:31:29.793Z,98857
2017-03-23T00:31:45.605Z,98865
2017-03-23T00:32:01.418Z,98857
2017-03-23T00:32:17.230Z,98851
2017-03-23T00:32:33.041Z,98860
2017-03-23T00:32:48.853Z,98862
2017-03-23T00:33:04.671Z,98859
2017-03-23T00:33:20.571Z,98862
2017-03-23T00:33:36.384Z,98857
2017-03-23T00:33:52.195Z,98859
2017-03-23T00:34:08.009Z,98859
2017-03-23T00:34:23.822Z,98859
2017-03-23T00:34:39.501Z,98862
2017-03-23T00:34:55.312Z,98859
2017-03-23T00:35:11.125Z,98865
2017-03-23T00:35:26.934Z,98859
2017-03-23T00:35:42.983Z,98868
2017-03-23T00:35:58.788Z,98859
2017-03-23T00:36:14.599Z,98862
2017-03-23T00:36:30.414Z,98865
2017-03-23T00:36:46.225Z,98859
2017-03-23T00:37:02.042Z,98859
2017-03-23T00:37:17.854Z,98851
2017-03-23T00:37:33.667Z,98862
2017-03-23T00:37:49.480Z,98868
2017-03-23T00:38:05.291Z,98851
2017-03-23T00:38:21.296Z,98868
2017-03-23T00:38:37.333Z,98865
2017-03-23T00:38:53.147Z,98862
2017-03-23T00:39:08.828Z,98853
2017-03-23T00:39:24.639Z,98851
2017-03-23T00:39:40.451Z,98856
2017-03-23T00:39:56.264Z,98862
2017-03-23T00:40:12.307Z,98856
2017-03-23T00:40:28.136Z,98859
2017-03-23T00:40:44.398Z,98868
2017-03-23T00:41:00.212Z,98853
2017-03-23T00:41:16.023Z,98868
2017-03-23T00:41:31.838Z,98862
2017-03-23T00:41:47.649Z,98851
2017-03-23T00:42:03.461Z,98871
2017-03-23T00:42:19.275Z,98856
2017-03-23T00:42:35.090Z,98862
2017-03-23T00:42:50.903Z,98862
2017-03-23T00:43:06.716Z,98853
2017-03-23T00:43:22.760Z,98856
2017-03-23T00:43:38.804Z,98853
2017-03-23T00:43:54.617Z,98859
2017-03-23T00:44:10.431Z,98859
2017-03-23T00:44:26.473Z,98859
2017-03-23T00:44:42.288Z,98871
2017-03-23T00:44:58.100Z,98853
2017-03-23T00:45:13.913Z,98856
2017-03-23T00:45:29.728Z,98868
2017-03-23T00:45:45.545Z,98862
2017-03-23T00:46:01.360Z,98865
2017-03-23T00:46:17.407Z,98871
2017-03-23T00:46:33.210Z,98865
2017-03-23T00:46:49.023Z,98868
2017-03-23T00:47:04.837Z,98865
2017-03-23T00:47:20.649Z,98868
2017-03-23T00:47:36.461Z,98865
2017-03-23T00:47:52.275Z,98862
2017-03-23T00:48:08.087Z,98856
2017-03-23T00:48:23.863Z,98851
2017-03-23T00:48:39.676Z,98859
2017-03-23T00:48:55.490Z,98856
2017-03-23T00:49:11.302Z,98859
2017-03-23T00:49:27.117Z,98854
2017-03-23T00:49:42.932Z,98856
2017-03-23T00:49:58.973Z,98845
2017-03-23T00:50:14.786Z,98851
2017-03-23T00:50:30.599Z,98851
2017-03-23T00:50:46.643Z,98856
2017-03-23T00:51:02.683Z,98851
2017-03-23T00:51:18.497Z,98848
2017-03-23T00:51:34.309Z,98862
2017-03-23T00:51:50.350Z,98865
2017-03-23T00:52:06.159Z,98856
2017-03-23T00:52:21.973Z,98874
2017-03-23T00:52:37.784Z,98859
2017-03-23T00:52:53.595Z,98859
2017-03-23T00:53:09.414Z,98862
2017-03-23T00:53:25.524Z,98862
2017-03-23T00:53:41.435Z,98859
2017-03-23T00:53:57.244Z,98859
2017-03-23T00:54:13.055Z,98862
2017-03-23T00:54:28.866Z,98851
2017-03-23T00:54:44.679Z,98859
2017-03-23T00:55:00.491Z,98851
2017-03-23T00:55:16.304Z,98856
2017-03-23T00:55:32.117Z,98854
2017-03-23T00:55:47.934Z,98859
2017-03-23T00:56:03.749Z,98859
2017-03-23T00:56:19.565Z,98865
2017-03-23T00:56:35.599Z,98862
2017-03-23T00:56:51.643Z,98851
2017-03-23T00:57:07.458Z,98856
2017-03-23T00:57:23.268Z,98857
2017-03-23T00:57:39.082Z,98862
2017-03-23T00:57:55.355Z,98854
2017-03-23T00:58:11.167Z,98851
2017-03-23T00:58:27.015Z,98862
2017-03-23T00:58:42.793Z,98865
2017-03-23T00:58:58.612Z,98859
2017-03-23T00:59:14.426Z,98854
2017-03-23T00:59:30.237Z,98851
2017-03-23T00:59:46.054Z,98857
2017-03-23T01:00:01.866Z,98854
2017-03-23T01:00:17.678Z,98859
2017-03-23T01:00:33.492Z,98854
2017-03-23T01:00:49.305Z,98862
2017-03-23T01:01:05.117Z,98857
2017-03-23T01:01:21.162Z,98857
2017-03-23T01:01:37.200Z,98859
2017-03-23T01:01:53.014Z,98859
2017-03-23T01:02:08.826Z,98851
2017-03-23T01:02:24.638Z,98859
2017-03-23T01:02:40.453Z,98859
2017-03-23T01:02:56.266Z,98865
2017-03-23T01:03:12.080Z,98859
2017-03-23T01:03:28.237Z,98857
2017-03-23T01:03:44.050Z,98857
2017-03-23T01:03:59.862Z,98862
2017-03-23T01:04:15.676Z,98857
2017-03-23T01:04:31.487Z,98860
2017-03-23T01:04:47.300Z,98862
2017-03-23T01:05:03.110Z,98854
2017-03-23T01:05:18.923Z,98857
2017-03-23T01:05:34.741Z,98868
2017-03-23T01:05:50.552Z,98860
2017-03-23T01:06:06.363Z,98859
2017-03-23T01:06:22.176Z,98848
2017-03-23T01:06:37.991Z,98859
2017-03-23T01:06:53.802Z,98854
2017-03-23T01:07:09.847Z,98865
2017-03-23T01:07:25.659Z,98857
2017-03-23T01:07:41.474Z,98848
2017-03-23T01:07:57.284Z,98854
2017-03-23T01:08:13.097Z,98854
2017-03-23T01:08:29.051Z,98851
2017-03-23T01:08:44.862Z,98851
2017-03-23T01:09:00.676Z,98845
2017-03-23T01:09:16.721Z,98842
2017-03-23T01:09:32.564Z,98862
2017-03-23T01:09:48.346Z,98862
2017-03-23T01:10:04.386Z,98851
2017-03-23T01:10:20.198Z,98854
2017-03-23T01:10:36.007Z,98851
2017-03-23T01:10:51.818Z,98851
2017-03-23T01:11:07.633Z,98851
2017-03-23T01:11:23.677Z,98854
2017-03-23T01:11:39.490Z,98854
2017-03-23T01:11:55.300Z,98854
2017-03-23T01:12:11.115Z,98856
2017-03-23T01:12:26.927Z,98862
2017-03-23T01:12:42.744Z,98845
2017-03-23T01:12:58.558Z,98854
2017-03-23T01:13:14.367Z,98854
2017-03-23T01:13:30.571Z,98854
2017-03-23T01:13:46.383Z,98845
2017-03-23T01:14:02.194Z,98859
2017-03-23T01:14:18.011Z,98848
2017-03-23T01:14:33.821Z,98854
2017-03-23T01:14:49.870Z,98851
2017-03-23T01:15:05.683Z,98859
2017-03-23T01:15:21.362Z,98854
2017-03-23T01:15:37.173Z,98848
2017-03-23T01:15:52.986Z,98859
2017-03-23T01:16:08.798Z,98856
2017-03-23T01:16:24.608Z,98854
2017-03-23T01:16:40.422Z,98856
2017-03-23T01:16:56.233Z,98856
2017-03-23T01:17:12.047Z,98859
2017-03-23T01:17:28.092Z,98856
2017-03-23T01:17:44.133Z,98865
2017-03-23T01:18:00.172Z,98862
2017-03-23T01:18:15.985Z,98862
2017-03-23T01:18:32.031Z,98859
2017-03-23T01:18:48.076Z,98859
2017-03-23T01:19:04.114Z,98865
2017-03-23T01:19:19.924Z,98871
2017-03-23T01:19:35.736Z,98874
2017-03-23T01:19:51.547Z,98880
2017-03-23T01:20:07.365Z,98871
2017-03-23T01:20:23.175Z,98868
2017-03-23T01:20:38.986Z,98865
2017-03-23T01:20:54.797Z,98874
2017-03-23T01:21:10.612Z,98874
2017-03-23T01:21:26.653Z,98877
2017-03-23T01:21:42.464Z,98874
2017-03-23T01:21:58.276Z,98874
2017-03-23T01:22:14.088Z,98877
2017-03-23T01:22:29.898Z,98868
2017-03-23T01:22:45.711Z,98883
2017-03-23T01:23:01.523Z,98886
2017-03-23T01:23:17.335Z,98871
2017-03-23T01:23:33.381Z,98871
2017-03-23T01:23:49.191Z,98880
2017-03-23T01:24:05.002Z,98874
2017-03-23T01:24:20.817Z,98868
2017-03-23T01:24:36.624Z,98868
2017-03-23T01:24:52.440Z,98880
2017-03-23T01:25:08.259Z,98874
2017-03-23T01:25:24.303Z,98880
2017-03-23T01:25:40.115Z,98874
2017-03-23T01:25:55.926Z,98874
2017-03-23T01:26:11.972Z,98868
2017-03-23T01:26:27.783Z,98874
2017-03-23T01:26:43.460Z,98874
2017-03-23T01:26:59.275Z,98862
2017-03-23T01:27:15.086Z,98874
2017-03-23T01:27:30.898Z,98874
2017-03-23T01:27:46.708Z,98877
2017-03-23T01:28:02.521Z,98868
2017-03-23T01:28:18.335Z,98871
2017-03-23T01:28:34.539Z,98874
2017-03-23T01:28:50.583Z,98871
2017-03-23T01:29:06.398Z,98865
2017-03-23T01:29:22.212Z,98868
2017-03-23T01:29:38.030Z,98871
2017-03-23T01:29:53.841Z,98871
2017-03-23T01:30:09.653Z,98865
2017-03-23T01:30:25.466Z,98868
2017-03-23T01:30:41.149Z,98874
2017-03-23T01:30:56.965Z,98865
2017-03-23T01:31:12.778Z,98868
2017-03-23T01:31:28.590Z,98868
2017-03-23T01:31:44.406Z,98862
2017-03-23T01:32:00.216Z,98868
2017-03-23T01:32:16.027Z,98862
2017-03-23T01:32:31.836Z,98874
2017-03-23T01:32:47.648Z,98868
2017-03-23T01:33:03.463Z,98862
2017-03-23T01:33:19.275Z,98860
2017-03-23T01:33:35.383Z,98874
2017-03-23T01:33:51.194Z,98865
2017-03-23T01:34:07.006Z,98851
2017-03-23T01:34:22.821Z,98860
2017-03-23T01:34:38.635Z,98871
2017-03-23T01:34:54.449Z,98860
2017-03-23T01:35:10.489Z,98860
2017-03-23T01:35:26.300Z,98868
2017-03-23T01:35:42.115Z,98865
2017-03-23T01:35:57.930Z,98871
2017-03-23T01:36:13.744Z,98862
2017-03-23T01:36:29.553Z,98871
2017-03-23T01:36:45.364Z,98871
2017-03-23T01:37:01.176Z,98860
2017-03-23T01:37:16.990Z,98868
2017-03-23T01:37:32.800Z,98868
2017-03-23T01:37:48.613Z,98868
2017-03-23T01:38:04.426Z,98871
2017-03-23T01:38:20.235Z,98862
2017-03-23T01:38:36.287Z,98865
2017-03-23T01:38:52.130Z,98865
2017-03-23T01:39:07.913Z,98862
2017-03-23T01:39:23.725Z,98868
2017-03-23T01:39:39.534Z,98859
2017-03-23T01:39:55.343Z,98865
2017-03-23T01:40:11.154Z,98871
2017-03-23T01:40:26.970Z,98871
2017-03-23T01:40:42.777Z,98857
2017-03-23T01:40:58.588Z,98865
2017-03-23T01:41:14.400Z,98868
2017-03-23T01:41:30.211Z,98868
2017-03-23T01:41:46.256Z,98865
2017-03-23T01:42:02.068Z,98859
2017-03-23T01:42:17.880Z,98865
2017-03-23T01:42:33.690Z,98851
2017-03-23T01:42:49.504Z,98859
2017-03-23T01:43:05.317Z,98874
2017-03-23T01:43:21.127Z,98859
2017-03-23T01:43:36.938Z,98862
2017-03-23T01:43:52.750Z,98862
2017-03-23T01:44:08.561Z,98871
2017-03-23T01:44:24.374Z,98862
2017-03-23T01:44:40.416Z,98862
2017-03-23T01:44:56.229Z,98874
2017-03-23T01:45:12.270Z,98868
2017-03-23T01:45:28.085Z,98865
2017-03-23T01:45:44.133Z,98871
2017-03-23T01:45:59.945Z,98868
2017-03-23T01:46:15.856Z,98868
2017-03-23T01:46:31.670Z,98865
2017-03-23T01:46:47.482Z,98862
2017-03-23T01:47:03.297Z,98865
2017-03-23T01:47:19.338Z,98871
2017-03-23T01:47:35.148Z,98868
2017-03-23T01:47:50.959Z,98868
2017-03-23T01:48:07.002Z,98862
2017-03-23T01:48:22.815Z,98877
2017-03-23T01:48:38.877Z,98871
2017-03-23T01:48:54.689Z,98874
2017-03-23T01:49:10.501Z,98871
2017-03-23T01:49:26.313Z,98868
2017-03-23T01:49:42.123Z,98868
2017-03-23T01:49:57.936Z,98874
2017-03-23T01:50:13.745Z,98871
2017-03-23T01:50:29.555Z,98871
2017-03-23T01:50:45.597Z,98865
2017-03-23T01:51:01.410Z,98868
2017-03-23T01:51:17.222Z,98877
2017-03-23T01:51:33.031Z,98871
2017-03-23T01:51:48.843Z,98859
2017-03-23T01:52:04.886Z,98865
2017-03-23T01:52:20.696Z,98865
2017-03-23T01:52:36.507Z,98862
2017-03-23T01:52:52.320Z,98862
2017-03-23T01:53:08.133Z,98862
2017-03-23T01:53:23.944Z,98862
2017-03-23T01:53:40.195Z,98871
2017-03-23T01:53:56.012Z,98862
2017-03-23T01:54:11.822Z,98871
2017-03-23T01:54:27.632Z,98871
2017-03-23T01:54:43.442Z,98862
2017-03-23T01:54:59.254Z,98868
2017-03-23T01:55:15.064Z,98865
2017-03-23T01:55:31.107Z,98862
2017-03-23T01:55:46.920Z,98868
2017-03-23T01:56:02.730Z,98868
2017-03-23T01:56:18.543Z,98871
2017-03-23T01:56:34.356Z,98874
2017-03-23T01:56:50.169Z,98871
2017-03-23T01:57:05.982Z,98868
2017-03-23T01:57:21.794Z,98868
2017-03-23T01:57:37.607Z,98868
2017-03-23T01:57:53.419Z,98871
2017-03-23T01:58:09.232Z,98868
2017-03-23T01:58:25.043Z,98868
2017-03-23T01:58:40.858Z,98871
2017-03-23T01:58:56.671Z,98860
2017-03-23T01:59:12.481Z,98874
2017-03-23T01:59:28.294Z,98865
2017-03-23T01:59:44.108Z,98868
2017-03-23T01:59:59.784Z,98874
2017-03-23T02:00:15.598Z,98868
2017-03-23T02:00:31.456Z,98860
2017-03-23T02:00:47.266Z,98874
2017-03-23T02:01:03.077Z,98865
2017-03-23T02:01:18.886Z,98862
2017-03-23T02:01:34.931Z,98868
2017-03-23T02:01:50.744Z,98860
2017-03-23T02:02:06.558Z,98865
2017-03-23T02:02:22.372Z,98862
2017-03-23T02:02:38.184Z,98871
2017-03-23T02:02:53.995Z,98860
2017-03-23T02:03:09.806Z,98865
2017-03-23T02:03:25.618Z,98871
2017-03-23T02:03:41.521Z,98860
2017-03-23T02:03:57.331Z,98860
2017-03-23T02:04:13.375Z,98874
2017-03-23T02:04:29.190Z,98868
2017-03-23T02:04:45.005Z,98871
2017-03-23T02:05:00.818Z,98868
2017-03-23T02:05:16.630Z,98865
2017-03-23T02:05:32.668Z,98865
2017-03-23T02:05:48.483Z,98868
2017-03-23T02:06:04.299Z,98860
2017-03-23T02:06:20.108Z,98860
2017-03-23T02:06:36.153Z,98868
2017-03-23T02:06:51.966Z,98863
2017-03-23T02:07:07.779Z,98871
2017-03-23T02:07:23.589Z,98871
2017-03-23T02:07:39.404Z,98871
2017-03-23T02:07:55.214Z,98868
2017-03-23T02:08:11.029Z,98863
2017-03-23T02:08:26.842Z,98854
2017-03-23T02:08:43.180Z,98874
2017-03-23T02:08:58.993Z,98868
2017-03-23T02:09:14.809Z,98868
2017-03-23T02:09:30.486Z,98871
2017-03-23T02:09:46.301Z,98860
2017-03-23T02:10:02.110Z,98868
2017-03-23T02:10:17.923Z,98865
2017-03-23T02:10:33.736Z,98868
2017-03-23T02:10:49.546Z,98863
2017-03-23T02:11:05.357Z,98860
2017-03-23T02:11:21.168Z,98860
2017-03-23T02:11:36.981Z,98874
2017-03-23T02:11:53.024Z,98862
2017-03-23T02:12:08.835Z,98868
2017-03-23T02:12:24.648Z,98862
2017-03-23T02:12:40.461Z,98862
2017-03-23T02:12:56.272Z,98862
2017-03-23T02:13:12.086Z,98860
2017-03-23T02:13:28.123Z,98857
2017-03-23T02:13:44.029Z,98859
2017-03-23T02:14:00.070Z,98857
2017-03-23T02:14:16.111Z,98862
2017-03-23T02:14:31.922Z,98859
2017-03-23T02:14:47.734Z,98862
2017-03-23T02:15:03.547Z,98848
2017-03-23T02:15:19.359Z,98848
2017-03-23T02:15:35.172Z,98851
2017-03-23T02:15:50.985Z,98851
2017-03-23T02:16:07.027Z,98862
2017-03-23T02:16:22.841Z,98854
2017-03-23T02:16:38.879Z,98857
2017-03-23T02:16:54.693Z,98854
2017-03-23T02:17:10.510Z,98854
2017-03-23T02:17:26.324Z,98854
2017-03-23T02:17:42.135Z,98848
2017-03-23T02:17:57.945Z,98862
2017-03-23T02:18:13.758Z,98851
2017-03-23T02:18:29.582Z,98851
2017-03-23T02:18:45.603Z,98845
2017-03-23T02:19:01.416Z,98848
2017-03-23T02:19:17.463Z,98854
2017-03-23T02:19:33.288Z,98857
2017-03-23T02:19:49.102Z,98857
2017-03-23T02:20:04.917Z,98851
2017-03-23T02:20:20.733Z,98865
2017-03-23T02:20:36.547Z,98857
2017-03-23T02:20:52.590Z,98848
2017-03-23T02:21:08.864Z,98842
2017-03-23T02:21:24.677Z,98851
2017-03-23T02:21:40.489Z,98854
2017-03-23T02:21:56.301Z,98854
2017-03-23T02:22:12.113Z,98851
2017-03-23T02:22:28.020Z,98854
2017-03-23T02:22:44.165Z,98848
2017-03-23T02:23:00.207Z,98857
2017-03-23T02:23:16.019Z,98851
2017-03-23T02:23:31.831Z,98848
2017-03-23T02:23:47.644Z,98848
2017-03-23T02:24:03.458Z,98848
2017-03-23T02:24:19.268Z,98848
2017-03-23T02:24:35.081Z,98848
2017-03-23T02:24:50.901Z,98842
2017-03-23T02:25:06.719Z,98845
2017-03-23T02:25:22.522Z,98845
2017-03-23T02:25:38.340Z,98845
2017-03-23T02:25:54.153Z,98839
2017-03-23T02:26:09.965Z,98842
2017-03-23T02:26:25.779Z,98848
2017-03-23T02:26:41.592Z,98848
2017-03-23T02:26:57.405Z,98845
2017-03-23T02:27:13.216Z,98851
2017-03-23T02:27:29.026Z,98836
2017-03-23T02:27:44.837Z,98845
2017-03-23T02:28:00.653Z,98851
2017-03-23T02:28:16.697Z,98854
2017-03-23T02:28:32.513Z,98848
2017-03-23T02:28:48.664Z,98842
2017-03-23T02:29:04.942Z,98854
2017-03-23T02:29:20.849Z,98848
2017-03-23T02:29:36.661Z,98839
2017-03-23T02:29:52.703Z,98851
2017-03-23T02:30:08.515Z,98845
2017-03-23T02:30:24.325Z,98848
2017-03-23T02:30:40.136Z,98848
2017-03-23T02:30:55.947Z,98836
2017-03-23T02:31:12.009Z,98854
2017-03-23T02:31:27.811Z,98848
2017-03-23T02:31:43.624Z,98842
2017-03-23T02:31:59.434Z,98854
2017-03-23T02:32:15.246Z,98845
2017-03-23T02:32:31.060Z,98848
2017-03-23T02:32:46.875Z,98848
2017-03-23T02:33:02.692Z,98851
2017-03-23T02:33:18.507Z,98845
2017-03-23T02:33:34.187Z,98845
2017-03-23T02:33:50.249Z,98857
2017-03-23T02:34:06.069Z,98845
2017-03-23T02:34:21.886Z,98854
2017-03-23T02:34:37.928Z,98851
2017-03-23T02:34:53.740Z,98854
2017-03-23T02:35:09.561Z,98854
2017-03-23T02:35:25.375Z,98845
2017-03-23T02:35:41.188Z,98851
2017-03-23T02:35:57.231Z,98854
2017-03-23T02:36:13.043Z,98848
2017-03-23T02:36:29.088Z,98851
2017-03-23T02:36:44.903Z,98845
2017-03-23T02:37:00.715Z,98845
2017-03-23T02:37:16.532Z,98842
2017-03-23T02:37:32.343Z,98845
2017-03-23T02:37:48.154Z,98848
2017-03-23T02:38:03.971Z,98848
2017-03-23T02:38:19.790Z,98845
2017-03-23T02:38:35.601Z,98842
2017-03-23T02:38:51.417Z,98834
2017-03-23T02:39:07.227Z,98842
2017-03-23T02:39:23.043Z,98834
2017-03-23T02:39:38.856Z,98845
2017-03-23T02:39:54.667Z,98848
2017-03-23T02:40:10.483Z,98842
2017-03-23T02:40:26.304Z,98842
2017-03-23T02:40:42.121Z,98839
2017-03-23T02:40:58.169Z,98842
2017-03-23T02:41:13.985Z,98839
2017-03-23T02:41:29.797Z,98854
2017-03-23T02:41:45.609Z,98845
2017-03-23T02:42:01.422Z,98845
2017-03-23T02:42:17.105Z,98842
2017-03-23T02:42:32.923Z,98848
2017-03-23T02:42:48.735Z,98839
2017-03-23T02:43:04.550Z,98854
2017-03-23T02:43:20.359Z,98842
2017-03-23T02:43:36.173Z,98854
2017-03-23T02:43:52.237Z,98845
2017-03-23T02:44:08.052Z,98848
2017-03-23T02:44:23.864Z,98836
2017-03-23T02:44:39.676Z,98839
2017-03-23T02:44:55.486Z,98836
2017-03-23T02:45:11.296Z,98842
2017-03-23T02:45:27.338Z,98839
2017-03-23T02:45:43.150Z,98839
2017-03-23T02:45:58.966Z,98826
2017-03-23T02:46:14.780Z,98845
2017-03-23T02:46:30.591Z,98842
2017-03-23T02:46:46.409Z,98839
2017-03-23T02:47:02.222Z,98845
2017-03-23T02:47:18.265Z,98839
2017-03-23T02:47:34.078Z,98839
2017-03-23T02:47:49.890Z,98833
2017-03-23T02:48:05.701Z,98839
2017-03-23T02:48:21.514Z,98836
2017-03-23T02:48:37.326Z,98839
2017-03-23T02:48:53.433Z,98833
2017-03-23T02:49:09.246Z,98836
2017-03-23T02:49:25.060Z,98823
2017-03-23T02:49:40.871Z,98833
2017-03-23T02:49:56.683Z,98836
2017-03-23T02:50:12.495Z,98839
2017-03-23T02:50:28.175Z,98826
2017-03-23T02:50:43.990Z,98833
2017-03-23T02:50:59.800Z,98828
2017-03-23T02:51:15.613Z,98823
2017-03-23T02:51:31.424Z,98826
2017-03-23T02:51:47.236Z,98830
2017-03-23T02:52:03.047Z,98823
2017-03-23T02:52:18.859Z,98826
2017-03-23T02:52:34.671Z,98820
2017-03-23T02:52:50.483Z,98826
2017-03-23T02:53:06.295Z,98830
2017-03-23T02:53:22.113Z,98820
2017-03-23T02:53:37.924Z,98836
2017-03-23T02:53:53.885Z,98823
2017-03-23T02:54:09.701Z,98826
2017-03-23T02:54:25.745Z,98826
2017-03-23T02:54:41.556Z,98823
2017-03-23T02:54:57.368Z,98828
2017-03-23T02:55:13.179Z,98823
2017-03-23T02:55:28.997Z,98826
2017-03-23T02:55:45.036Z,98828
2017-03-23T02:56:00.844Z,98826
2017-03-23T02:56:16.655Z,98823
2017-03-23T02:56:32.470Z,98826
2017-03-23T02:56:48.280Z,98823
2017-03-23T02:57:04.094Z,98820
2017-03-23T02:57:20.139Z,98817
2017-03-23T02:57:35.950Z,98814
2017-03-23T02:57:51.762Z,98817
2017-03-23T02:58:07.579Z,98820
2017-03-23T02:58:23.390Z,98814
2017-03-23T02:58:39.200Z,98820
2017-03-23T02:58:55.253Z,98823
2017-03-23T02:59:11.297Z,98811
2017-03-23T02:59:27.108Z,98820
2017-03-23T02:59:42.919Z,98826
2017-03-23T02:59:58.729Z,98828
2017-03-23T03:00:14.542Z,98820
2017-03-23T03:00:30.356Z,98826
2017-03-23T03:00:46.173Z,98820
2017-03-23T03:01:01.987Z,98831
2017-03-23T03:01:17.798Z,98820
2017-03-23T03:01:33.612Z,98828
2017-03-23T03:01:49.424Z,98826
2017-03-23T03:02:05.235Z,98817
2017-03-23T03:02:21.048Z,98823
2017-03-23T03:02:36.860Z,98814
2017-03-23T03:02:52.671Z,98817
2017-03-23T03:03:08.484Z,98817
2017-03-23T03:03:24.296Z,98817
2017-03-23T03:03:40.107Z,98823
2017-03-23T03:03:56.018Z,98808
2017-03-23T03:04:11.829Z,98806
2017-03-23T03:04:27.643Z,98808
2017-03-23T03:04:43.455Z,98817
2017-03-23T03:04:59.268Z,98817
2017-03-23T03:05:15.079Z,98823
2017-03-23T03:05:30.892Z,98817
2017-03-23T03:05:46.705Z,98826
2017-03-23T03:06:02.519Z,98814
2017-03-23T03:06:18.331Z,98811
2017-03-23T03:06:34.369Z,98820
2017-03-23T03:06:50.180Z,98826
2017-03-23T03:07:05.998Z,98828
2017-03-23T03:07:21.809Z,98814
2017-03-23T03:07:37.619Z,98820
2017-03-23T03:07:53.431Z,98836
2017-03-23T03:08:09.477Z,98831
2017-03-23T03:08:25.287Z,98828
2017-03-23T03:08:41.101Z,98828
2017-03-23T03:08:57.219Z,98820
2017-03-23T03:09:13.260Z,98828
2017-03-23T03:09:29.536Z,98817
2017-03-23T03:09:45.351Z,98823
2017-03-23T03:10:01.160Z,98828
2017-03-23T03:10:16.977Z,98834
2017-03-23T03:10:33.021Z,98826
2017-03-23T03:10:49.061Z,98831
2017-03-23T03:11:04.874Z,98831
2017-03-23T03:11:20.916Z,98826
2017-03-23T03:11:36.727Z,98831
2017-03-23T03:11:52.539Z,98839
2017-03-23T03:12:08.352Z,98826
2017-03-23T03:12:24.167Z,98826
2017-03-23T03:12:39.980Z,98831
2017-03-23T03:12:55.790Z,98826
2017-03-23T03:13:11.602Z,98831
2017-03-23T03:13:27.416Z,98823
2017-03-23T03:13:43.224Z,98831
2017-03-23T03:13:59.184Z,98823
2017-03-23T03:14:14.996Z,98831
2017-03-23T03:14:30.814Z,98823
2017-03-23T03:14:46.629Z,98823
2017-03-23T03:15:02.445Z,98826
2017-03-23T03:15:18.259Z,98820
2017-03-23T03:15:34.073Z,98820
2017-03-23T03:15:49.885Z,98826
2017-03-23T03:16:05.694Z,98823
2017-03-23T03:16:21.737Z,98831
2017-03-23T03:16:37.547Z,98811
2017-03-23T03:16:53.358Z,98817
2017-03-23T03:17:09.172Z,98831
2017-03-23T03:17:25.078Z,98820
2017-03-23T03:17:40.889Z,98826
2017-03-23T03:17:56.700Z,98826
2017-03-23T03:18:12.743Z,98831
2017-03-23T03:18:28.569Z,98831
2017-03-23T03:18:44.382Z,98834
2017-03-23T03:19:00.817Z,98820
2017-03-23T03:19:16.627Z,98842
2017-03-23T03:19:32.440Z,98828
2017-03-23T03:19:48.251Z,98831
2017-03-23T03:20:04.063Z,98839
2017-03-23T03:20:20.109Z,98842
2017-03-23T03:20:36.148Z,98820
2017-03-23T03:20:51.958Z,98834
2017-03-23T03:21:07.768Z,98836
2017-03-23T03:21:23.581Z,98831
2017-03-23T03:21:39.393Z,98834
2017-03-23T03:21:55.207Z,98842
2017-03-23T03:22:11.021Z,98833
2017-03-23T03:22:26.830Z,98834
2017-03-23T03:22:42.873Z,98836
2017-03-23T03:22:58.683Z,98831
2017-03-23T03:23:14.494Z,98839
2017-03-23T03:23:30.308Z,98834
2017-03-23T03:23:46.120Z,98834
2017-03-23T03:24:02.166Z,98839